Time;durP1;ratioP1;P1;durP2;ratioP2;P2;SDS_P1;SDS_P2;PMS_P1;PMS_P2;Temp;Humidity;BMP_temperature;BMP_pressure;BME280_temperature;BME280_humidity;BME280_pressure;Samples;Min_cycle;Max_cycle;Signal;HPM_P1;HPM_P2
2022/10/25 00:02:14;;;;;;;0.93;0.60;;;;;;;9.14;100.00;96442.28;5035372;28;20033;-75
2022/10/25 00:04:39;;;;;;;1.15;0.45;;;;;;;9.06;100.00;96439.56;5027312;28;20515;-74
2022/10/25 00:07:05;;;;;;;1.17;0.40;;;;;;;9.02;100.00;96443.44;5026729;28;20037;-74
2022/10/25 00:09:31;;;;;;;1.40;0.30;;;;;;;8.94;100.00;96445.94;5020099;28;20025;-74
2022/10/25 00:11:56;;;;;;;1.30;0.50;;;;;;;8.95;100.00;96437.09;5026532;28;20056;-74
2022/10/25 00:14:22;;;;;;;1.57;0.47;;;;;;;8.94;100.00;96448.56;5026476;28;20040;-74
2022/10/25 00:16:48;;;;;;;1.33;0.40;;;;;;;9.00;100.00;96445.38;5030365;28;20044;-75
2022/10/25 00:19:13;;;;;;;0.73;0.40;;;;;;;8.94;100.00;96448.56;5022363;28;20037;-77
2022/10/25 00:21:39;;;;;;;2.33;0.50;;;;;;;8.94;100.00;96441.53;5027244;28;20071;-78
2022/10/25 00:24:06;;;;;;;2.50;0.40;;;;;;;8.90;100.00;96441.97;5028320;28;20040;-75
2022/10/25 00:26:31;;;;;;;2.43;0.53;;;;;;;8.77;100.00;96436.22;5027511;28;20041;-76
2022/10/25 00:28:58;;;;;;;1.03;0.47;;;;;;;8.77;100.00;96428.34;5035211;28;20398;-75
2022/10/25 00:31:24;;;;;;;0.70;0.37;;;;;;;8.76;100.00;96437.19;5026699;28;20029;-75
2022/10/25 00:33:50;;;;;;;1.73;0.40;;;;;;;8.76;100.00;96442.44;5035587;28;20036;-77
2022/10/25 00:36:20;;;;;;;3.77;0.67;;;;;;;8.76;100.00;96426.69;5028727;28;20108;-78
2022/10/25 00:38:46;;;;;;;4.90;0.70;;;;;;;8.96;100.00;96428.28;5025092;28;20098;-75
2022/10/25 00:41:14;;;;;;;1.20;0.47;;;;;;;8.92;100.00;96440.00;5027273;28;20089;-74
2022/10/25 00:43:46;;;;;;;1.00;0.40;;;;;;;8.98;100.00;96437.63;5018920;28;20026;-79
2022/10/25 00:46:18;;;;;;;0.97;0.50;;;;;;;9.02;100.00;96438.19;5025969;28;20065;-77
2022/10/25 00:48:59;;;;;;;2.87;0.40;;;;;;;9.05;100.00;96440.50;5026492;28;20563;-76
2022/10/25 00:51:32;;;;;;;0.30;0.30;;;;;;;9.09;100.00;96443.69;5024854;28;20064;-75
2022/10/25 00:53:58;;;;;;;1.73;0.50;;;;;;;9.06;100.00;96439.56;5026716;28;20052;-76
2022/10/25 00:56:29;;;;;;;4.10;1.53;;;;;;;9.04;100.00;96438.88;5025725;28;20033;-74
2022/10/25 00:58:59;;;;;;;2.33;0.57;;;;;;;9.05;100.00;96443.13;5024308;28;20087;-76
2022/10/25 01:01:26;;;;;;;1.27;0.53;;;;;;;9.02;100.00;96443.44;5024610;28;20052;-75
2022/10/25 01:03:55;;;;;;;1.37;0.50;;;;;;;9.09;100.00;96448.94;5024542;28;20041;-75
2022/10/25 01:06:28;;;;;;;3.37;0.50;;;;;;;9.13;100.00;96440.63;5026721;28;20430;-79
2022/10/25 01:08:55;;;;;;;0.28;0.25;;;;;;;9.29;100.00;96433.91;5025764;28;20041;-75
2022/10/25 01:11:20;;;;;;;1.67;0.50;;;;;;;9.32;100.00;96442.34;5025899;28;20037;-75
2022/10/25 01:13:47;;;;;;;3.37;0.60;;;;;;;9.37;100.00;96436.66;5024926;28;20040;-74
2022/10/25 01:16:16;;;;;;;1.63;0.50;;;;;;;9.43;100.00;96433.44;5026665;28;20586;-76
2022/10/25 01:19:00;;;;;;;1.17;0.30;;;;;;;9.54;100.00;96437.66;5025555;28;20068;-75
2022/10/25 01:21:55;;;;;;;1.83;0.40;;;;;;;9.52;100.00;96434.34;5032762;28;20029;-74
2022/10/25 01:24:39;;;;;;;3.20;0.57;;;;;;;9.45;100.00;96429.66;5011359;28;20115;-74
2022/10/25 01:27:20;;;;;;;6.60;2.10;;;;;;;9.43;100.00;96425.56;5026532;28;20044;-74
2022/10/25 01:30:14;;;;;;;2.97;0.40;;;;;;;9.48;100.00;96423.31;5025103;28;20034;-75
2022/10/25 01:32:39;;;;;;;7.32;1.98;;;;;;;9.47;100.00;96421.66;5027550;28;20033;-78
2022/10/25 01:35:25;;;;;;;2.53;0.70;;;;;;;9.53;100.00;96420.25;5028586;28;20461;-74
2022/10/25 01:38:17;;;;;;;1.47;0.50;;;;;;;9.56;100.00;96420.78;5031143;28;20558;-74
2022/10/25 01:40:54;;;;;;;1.07;0.40;;;;;;;9.59;100.00;96425.75;5031698;28;20041;-74
2022/10/25 01:44:08;;;;;;;2.83;0.60;;;;;;;9.66;100.00;96424.16;5029407;28;20098;-76
2022/10/25 01:46:39;;;;;;;1.77;0.37;;;;;;;9.65;100.00;96434.81;5024629;28;20578;-75
2022/10/25 01:49:11;;;;;;;1.73;0.53;;;;;;;9.64;100.00;96423.47;5024928;28;20401;-74
2022/10/25 01:51:37;;;;;;;2.80;0.70;;;;;;;9.64;100.00;96422.66;5024524;28;20037;-76
2022/10/25 01:54:17;;;;;;;0.67;0.50;;;;;;;9.64;100.00;96423.47;5029703;28;20107;-74
2022/10/25 01:57:14;;;;;;;1.87;0.87;;;;;;;9.61;100.00;96423.78;5031594;28;20538;-75
2022/10/25 01:59:42;;;;;;;3.00;0.60;;;;;;;9.59;100.00;96422.25;5026284;28;20087;-75
2022/10/25 02:02:16;;;;;;;0.90;0.57;;;;;;;9.52;100.00;96429.09;5029826;28;20073;-75
2022/10/25 02:05:00;;;;;;;2.80;0.70;;;;;;;9.52;100.00;96424.66;5030721;28;20040;-75
2022/10/25 02:07:34;;;;;;;2.60;0.70;;;;;;;9.47;100.00;96431.34;5012876;28;20067;-75
2022/10/25 02:10:29;;;;;;;2.27;0.77;;;;;;;9.43;100.00;96430.81;5031355;28;20029;-75
2022/10/25 02:13:01;;;;;;;3.73;0.93;;;;;;;9.46;100.00;96430.53;5029864;28;20050;-76
2022/10/25 02:15:39;;;;;;;1.80;0.60;;;;;;;9.38;100.00;96425.16;5028817;28;20030;-75
2022/10/25 02:18:12;;;;;;;2.63;0.70;;;;;;;9.43;100.00;96436.88;5022983;28;20037;-75
2022/10/25 02:20:40;;;;;;;2.33;0.75;;;;;;;9.44;100.00;96427.19;5031841;28;20041;-77
2022/10/25 02:23:06;;;;;;;4.90;0.80;;;;;;;9.45;100.00;96428.84;5022697;28;20083;-75
2022/10/25 02:25:33;;;;;;;6.43;0.90;;;;;;;9.44;100.00;96420.16;5031713;28;20033;-76
2022/10/25 02:28:03;;;;;;;2.10;0.77;;;;;;;9.45;100.00;96426.22;5030075;28;20037;-74
2022/10/25 02:30:32;;;;;;;2.67;0.90;;;;;;;9.43;100.00;96428.19;5013976;28;20114;-75
2022/10/25 02:32:58;;;;;;;4.20;1.10;;;;;;;9.35;100.00;96423.66;5031907;28;20037;-74
2022/10/25 02:35:23;;;;;;;3.17;1.40;;;;;;;9.30;100.00;96425.91;5031820;28;20044;-75
2022/10/25 02:37:49;;;;;;;4.47;1.13;;;;;;;9.29;100.00;96426.88;5030375;28;20487;-75
2022/10/25 02:40:15;;;;;;;2.77;0.90;;;;;;;9.24;100.00;96433.53;5031177;28;20041;-75
2022/10/25 02:42:40;;;;;;;2.00;0.87;;;;;;;9.23;100.00;96429.25;5021421;28;20103;-75
2022/10/25 02:45:07;;;;;;;2.07;0.73;;;;;;;9.22;100.00;96433.66;5029811;28;20037;-75
2022/10/25 02:47:33;;;;;;;3.13;0.90;;;;;;;9.27;100.00;96426.19;5025622;28;20097;-75
2022/10/25 02:49:59;;;;;;;2.87;1.00;;;;;;;9.34;100.00;96429.06;5031199;28;20041;-75
2022/10/25 02:52:24;;;;;;;1.83;0.70;;;;;;;9.36;100.00;96425.31;5028393;28;20555;-76
2022/10/25 02:54:50;;;;;;;3.17;0.90;;;;;;;9.43;100.00;96429.00;5037779;28;20112;-75
2022/10/25 02:57:16;;;;;;;3.13;0.83;;;;;;;9.40;100.00;96437.16;5038392;28;20454;-74
2022/10/25 02:59:41;;;;;;;4.27;1.00;;;;;;;9.48;100.00;96433.81;5031274;28;20399;-75
2022/10/25 03:02:07;;;;;;;4.03;0.90;;;;;;;9.48;100.00;96435.59;5024967;28;20037;-77
2022/10/25 03:04:33;;;;;;;2.23;0.80;;;;;;;9.46;100.00;96430.53;5006430;28;20072;-74
2022/10/25 03:06:58;;;;;;;2.10;0.77;;;;;;;9.45;100.00;96431.47;5028968;28;20033;-75
2022/10/25 03:09:24;;;;;;;3.70;0.90;;;;;;;9.47;100.00;96424.28;5027637;28;20037;-75
2022/10/25 03:11:50;;;;;;;2.20;0.70;;;;;;;9.43;100.00;96425.56;5010982;28;20052;-75
2022/10/25 03:14:15;;;;;;;3.17;1.00;;;;;;;9.40;100.00;96433.72;5028705;28;20049;-76
2022/10/25 03:16:41;;;;;;;2.50;1.07;;;;;;;9.41;100.00;96427.50;5032273;28;20037;-75
2022/10/25 03:19:07;;;;;;;3.83;1.03;;;;;;;9.42;100.00;96430.00;5027530;28;20030;-75
2022/10/25 03:21:33;;;;;;;1.97;0.73;;;;;;;9.39;100.00;96437.34;5028189;28;20068;-74
2022/10/25 03:23:59;;;;;;;3.23;1.03;;;;;;;9.42;100.00;96432.63;5036587;28;20057;-74
2022/10/25 03:26:24;;;;;;;6.03;0.90;;;;;;;9.41;100.00;96436.19;5011013;28;20038;-76
2022/10/25 03:28:50;;;;;;;4.00;1.10;;;;;;;9.45;100.00;96434.91;5027655;28;20039;-77
2022/10/25 03:31:17;;;;;;;3.83;1.40;;;;;;;9.46;100.00;96433.16;5028463;28;20056;-74
2022/10/25 03:33:43;;;;;;;2.40;0.90;;;;;;;9.51;100.00;96423.00;5028110;28;20029;-75
2022/10/25 03:36:09;;;;;;;3.27;1.10;;;;;;;9.56;100.00;96420.78;5028495;28;20040;-77
2022/10/25 03:38:35;;;;;;;4.87;1.10;;;;;;;9.48;100.00;96425.94;5026644;28;20033;-76
2022/10/25 03:41:00;;;;;;;2.70;1.10;;;;;;;9.40;100.00;96428.47;5026942;28;20524;-76
2022/10/25 03:43:26;;;;;;;1.70;1.03;;;;;;;9.40;100.00;96438.97;5028799;28;20503;-74
2022/10/25 03:45:52;;;;;;;1.87;0.87;;;;;;;9.35;100.00;96441.19;5028382;28;20034;-74
2022/10/25 03:48:18;;;;;;;5.97;1.50;;;;;;;9.32;100.00;96454.63;5027896;28;20029;-79
2022/10/25 03:50:43;;;;;;;3.20;1.60;;;;;;;9.32;100.00;96436.25;5028654;28;20402;-77
2022/10/25 03:53:10;;;;;;;6.93;2.17;;;;;;;9.32;100.00;96446.75;5032978;28;20116;-75
2022/10/25 03:55:36;;;;;;;7.53;1.90;;;;;;;9.37;100.00;96447.16;5026662;28;20033;-75
2022/10/25 03:58:02;;;;;;;3.70;1.40;;;;;;;9.39;100.00;96447.84;5027105;28;20029;-74
2022/10/25 04:00:28;;;;;;;3.60;1.87;;;;;;;9.44;100.00;96450.81;5027970;28;20068;-74
2022/10/25 04:02:55;;;;;;;4.03;1.40;;;;;;;9.42;100.00;96451.00;5029702;28;20037;-74
2022/10/25 04:05:21;;;;;;;4.63;1.30;;;;;;;9.43;100.00;96451.81;5029891;28;20029;-74
2022/10/25 04:07:47;;;;;;;6.47;2.20;;;;;;;9.44;100.00;96449.03;5025107;28;20038;-76
2022/10/25 04:10:13;;;;;;;2.47;1.30;;;;;;;9.49;100.00;96451.22;5029247;28;20036;-77
2022/10/25 04:12:38;;;;;;;4.77;2.13;;;;;;;9.47;100.00;96453.16;5027889;28;20037;-74
2022/10/25 04:15:04;;;;;;;5.73;2.53;;;;;;;9.43;100.00;96455.25;5026457;28;20039;-74
2022/10/25 04:17:30;;;;;;;6.73;1.77;;;;;;;9.45;100.00;96455.91;5026056;28;20037;-75
2022/10/25 04:19:56;;;;;;;3.27;1.40;;;;;;;9.44;100.00;96449.03;5026999;28;20557;-75
2022/10/25 04:22:21;;;;;;;5.00;1.70;;;;;;;9.45;100.00;96449.84;5019632;28;20526;-74
2022/10/25 04:24:47;;;;;;;5.47;2.10;;;;;;;9.45;100.00;96449.84;5028225;28;20057;-73
2022/10/25 04:27:13;;;;;;;3.33;1.50;;;;;;;9.52;100.00;96445.66;5016378;28;20037;-76
2022/10/25 04:29:39;;;;;;;5.33;1.67;;;;;;;9.58;100.00;96455.56;5009816;28;20029;-75
2022/10/25 04:32:05;;;;;;;3.90;1.67;;;;;;;9.62;100.00;96451.69;5035682;28;20056;-75
2022/10/25 04:34:30;;;;;;;10.83;2.80;;;;;;;9.64;100.00;96456.78;5029413;28;20047;-76
2022/10/25 04:36:56;;;;;;;6.33;1.60;;;;;;;9.70;100.00;96453.59;5028447;28;20589;-75
2022/10/25 04:39:22;;;;;;;5.10;1.83;;;;;;;9.78;100.00;96456.28;5029435;28;20025;-75
2022/10/25 04:41:48;;;;;;;4.57;1.60;;;;;;;9.85;100.00;96456.50;5030739;28;20136;-76
2022/10/25 04:44:14;;;;;;;4.77;2.20;;;;;;;9.86;100.00;96458.19;5034578;28;20029;-74
2022/10/25 04:46:40;;;;;;;8.50;3.40;;;;;;;9.90;100.00;96465.59;5026688;28;20041;-75
2022/10/25 04:49:05;;;;;;;7.23;2.83;;;;;;;9.92;100.00;96457.56;4993608;28;20042;-75
2022/10/25 04:51:31;;;;;;;8.53;3.17;;;;;;;9.92;100.00;96457.56;5021855;28;20033;-75
2022/10/25 04:53:57;;;;;;;7.30;3.23;;;;;;;9.93;100.00;96461.84;5027809;28;20022;-74
2022/10/25 04:56:22;;;;;;;6.90;2.80;;;;;;;9.91;100.00;96472.50;5041534;28;20041;-75
2022/10/25 04:58:48;;;;;;;10.07;2.50;;;;;;;9.95;100.00;96467.78;5028137;28;20037;-75
2022/10/25 05:01:16;;;;;;;7.03;2.20;;;;;;;9.95;100.00;96475.66;5026475;28;20029;-77
2022/10/25 05:03:42;;;;;;;6.13;2.37;;;;;;;9.96;100.00;96474.69;5026322;28;20621;-75
2022/10/25 05:06:16;;;;;;;9.40;2.90;;;;;;;9.96;100.00;96463.34;5028096;28;20029;-76
2022/10/25 05:08:44;;;;;;;9.70;2.70;;;;;;;9.95;100.00;96475.66;5019414;28;20034;-78
2022/10/25 05:11:11;;;;;;;4.27;1.77;;;;;;;9.90;100.00;96473.47;5031025;28;20070;-76
2022/10/25 05:13:39;;;;;;;9.27;4.13;;;;;;;9.88;100.00;96482.47;5031755;28;20029;-74
2022/10/25 05:16:05;;;;;;;6.93;3.00;;;;;;;9.86;100.00;96487.06;5022199;28;20053;-75
2022/10/25 05:18:33;;;;;;;4.67;2.03;;;;;;;9.84;100.00;96483.75;5029596;28;20053;-75
2022/10/25 05:21:02;;;;;;;5.73;1.80;;;;;;;9.88;100.00;96485.94;5030861;28;20072;-75
2022/10/25 05:23:29;;;;;;;3.97;1.63;;;;;;;9.95;100.00;96480.09;5031441;28;20410;-75
2022/10/25 05:26:15;;;;;;;6.43;2.10;;;;;;;9.95;100.00;96483.53;5048250;28;20131;-75
2022/10/25 05:28:43;;;;;;;7.27;2.83;;;;;;;9.93;100.00;96480.25;5030026;28;20030;-75
2022/10/25 05:31:13;;;;;;;9.90;3.93;;;;;;;9.88;100.00;96483.31;5029492;28;20453;-76
2022/10/25 05:33:39;;;;;;;10.77;5.17;;;;;;;9.83;100.00;96480.31;5029939;28;20037;-78
2022/10/25 05:36:04;;;;;;;9.73;6.00;;;;;;;9.79;100.00;96488.63;5021812;28;20044;-75
2022/10/25 05:38:31;;;;;;;6.07;3.23;;;;;;;9.74;100.00;96489.06;5028198;28;20707;-75
2022/10/25 05:40:58;;;;;;;6.87;2.67;;;;;;;9.66;100.00;96492.44;5030849;28;20025;-75
2022/10/25 05:43:25;;;;;;;5.77;2.50;;;;;;;9.64;100.00;96502.25;5029478;28;20041;-75
2022/10/25 05:45:51;;;;;;;7.80;1.80;;;;;;;9.66;100.00;96491.63;5029031;28;20033;-75
2022/10/25 05:48:18;;;;;;;5.13;2.00;;;;;;;9.64;100.00;96494.38;5030121;28;20036;-75
2022/10/25 05:50:44;;;;;;;6.97;2.07;;;;;;;9.60;100.00;96502.69;5031574;28;20475;-74
2022/10/25 05:53:10;;;;;;;10.00;2.07;;;;;;;9.55;100.00;96508.38;5029657;28;20021;-75
2022/10/25 05:55:35;;;;;;;7.60;2.33;;;;;;;9.55;100.00;96507.56;5031098;28;20040;-76
2022/10/25 05:58:02;;;;;;;6.37;2.17;;;;;;;9.54;100.00;96506.72;5029620;28;20029;-74
2022/10/25 06:00:28;;;;;;;5.90;2.50;;;;;;;9.59;100.00;96509.75;5024489;28;20487;-74
2022/10/25 06:02:54;;;;;;;8.97;1.90;;;;;;;9.59;100.00;96498.41;5021319;28;20544;-75
2022/10/25 06:05:20;;;;;;;4.63;1.90;;;;;;;9.52;100.00;96498.16;5030538;28;20034;-75
2022/10/25 06:07:46;;;;;;;5.10;2.33;;;;;;;9.48;100.00;96499.44;5027658;28;20070;-74
2022/10/25 06:10:12;;;;;;;7.43;3.93;;;;;;;9.48;100.00;96512.56;5027161;28;20394;-75
2022/10/25 06:12:38;;;;;;;8.60;4.87;;;;;;;9.43;100.00;96512.19;5012703;28;20033;-74
2022/10/25 06:15:04;;;;;;;13.00;5.83;;;;;;;9.42;100.00;96514.00;5029976;28;20699;-78
2022/10/25 06:17:29;;;;;;;9.80;5.07;;;;;;;9.45;100.00;96513.66;5023506;28;20040;-75
2022/10/25 06:19:55;;;;;;;4.87;2.43;;;;;;;9.41;100.00;96519.38;5027410;28;20037;-75
2022/10/25 06:22:21;;;;;;;5.33;2.50;;;;;;;9.41;100.00;96517.56;5011743;28;20470;-75
2022/10/25 06:24:46;;;;;;;7.60;2.43;;;;;;;9.41;100.00;96514.13;5027566;28;20069;-76
2022/10/25 06:27:12;;;;;;;7.50;2.50;;;;;;;9.48;100.00;96512.56;5030008;28;20144;-74
2022/10/25 06:29:38;;;;;;;6.77;2.47;;;;;;;9.58;100.00;96512.50;5029925;28;20041;-75
2022/10/25 06:32:03;;;;;;;9.30;2.30;;;;;;;9.65;100.00;96513.59;5028681;28;20032;-75
2022/10/25 06:34:29;;;;;;;6.10;1.80;;;;;;;9.75;100.00;96516.97;5027356;28;20036;-74
2022/10/25 06:36:55;;;;;;;6.83;2.10;;;;;;;9.93;100.00;96511.78;5033423;28;20669;-74
2022/10/25 06:39:20;;;;;;;4.33;1.70;;;;;;;10.18;100.00;96519.91;5029208;28;20075;-74
2022/10/25 06:41:46;;;;;;;8.17;1.90;;;;;;;10.35;100.00;96514.66;5029885;28;20442;-74
2022/10/25 06:44:12;;;;;;;5.70;1.70;;;;;;;10.74;100.00;96516.13;5029222;28;20022;-75
2022/10/25 06:46:39;;;;;;;9.63;2.10;;;;;;;10.98;100.00;96507.59;5012260;28;20056;-76
2022/10/25 06:49:05;;;;;;;3.57;1.20;;;;;;;11.45;100.00;96510.63;5028152;28;20064;-74
2022/10/25 06:51:33;;;;;;;3.43;1.10;;;;;;;11.64;100.00;96506.13;5028748;28;20041;-75
2022/10/25 06:54:00;;;;;;;6.37;1.67;;;;;;;11.55;100.00;96516.59;5024174;28;20120;-75
2022/10/25 06:56:27;;;;;;;4.73;1.70;;;;;;;11.91;100.00;96524.34;5029498;28;20060;-75
2022/10/25 06:58:54;;;;;;;4.10;1.33;;;;;;;12.29;100.00;96508.94;5032551;28;20117;-75
2022/10/25 07:01:21;;;;;;;8.83;1.60;;;;;;;12.50;100.00;96516.34;5028902;28;20101;-75
2022/10/25 07:03:49;;;;;;;6.13;1.40;;;;;;;12.43;100.00;96516.19;5030492;28;20030;-76
2022/10/25 07:06:17;;;;;;;6.93;1.73;;;;;;;12.90;100.00;96504.97;5027951;28;20083;-77
2022/10/25 07:08:45;;;;;;;5.90;1.43;;;;;;;13.04;100.00;96507.91;5027030;28;20659;-75
2022/10/25 07:11:18;;;;;;;5.27;1.80;;;;;;;13.42;100.00;96504.56;5029127;28;20029;-75
2022/10/25 07:13:44;;;;;;;;;;;;;;;14.24;100.00;96501.50;5028854;28;20052;-76
2022/10/25 07:16:13;;;;;;;3.57;1.33;;;;;;;14.72;100.00;96493.41;5028137;28;20386;-75
2022/10/25 07:18:39;;;;;;;6.13;1.10;;;;;;;15.26;100.00;96488.75;5035148;28;20610;-76
2022/10/25 07:21:07;;;;;;;5.55;0.98;;;;;;;15.49;100.00;96495.78;5036576;28;20026;-75
2022/10/25 07:23:37;;;;;;;10.07;1.55;;;;;;;15.41;100.00;96498.53;5029527;28;20946;-75
2022/10/25 07:26:03;;;;;;;3.75;1.10;;;;;;;15.26;100.00;96501.19;5034880;28;20033;-76
2022/10/25 07:28:28;;;;;;;5.88;1.42;;;;;;;15.59;100.00;96508.75;5030029;28;20041;-75
2022/10/25 07:30:54;;;;;;;5.80;2.20;;;;;;;15.22;100.00;96513.94;5026817;28;20035;-75
2022/10/25 07:33:20;;;;;;;4.90;1.63;;;;;;;14.55;100.00;96519.16;5029032;28;20048;-75
2022/10/25 07:35:48;;;;;;;5.03;2.00;;;;;;;14.02;100.00;96521.66;5010993;28;20370;-76
2022/10/25 07:38:14;;;;;;;6.57;2.90;;;;;;;14.00;100.00;96528.91;5026486;28;20026;-75
2022/10/25 07:40:40;;;;;;;6.28;2.50;;;;;;;13.70;100.00;96533.19;5021705;28;20109;-76
2022/10/25 07:43:07;;;;;;;4.55;1.85;;;;;;;14.01;100.00;96533.19;5027870;28;20691;-78
2022/10/25 07:45:33;;;;;;;6.15;2.33;;;;;;;15.20;100.00;96518.63;5029970;28;20029;-75
2022/10/25 07:47:59;;;;;;;4.93;2.15;;;;;;;16.19;100.00;96505.00;5031611;28;20034;-75
2022/10/25 07:50:25;;;;;;;6.72;1.80;;;;;;;15.78;100.00;96511.69;5028675;28;20061;-75
2022/10/25 07:52:50;;;;;;;5.22;1.60;;;;;;;16.27;100.00;96508.38;5028245;28;20060;-75
2022/10/25 07:55:16;;;;;;;4.68;1.27;;;;;;;16.35;100.00;96510.09;5027845;28;20095;-75
2022/10/25 07:57:42;;;;;;;5.68;1.50;;;;;;;16.94;100.00;96506.38;5025633;28;20034;-78
2022/10/25 08:00:09;;;;;;;4.20;1.25;;;;;;;16.80;100.00;96497.50;5027601;28;20029;-76
2022/10/25 08:02:35;;;;;;;3.10;1.13;;;;;;;16.75;100.00;96496.41;5026617;28;20043;-76
2022/10/25 08:05:00;;;;;;;3.85;1.35;;;;;;;17.53;100.00;96494.50;5027647;28;20029;-76
2022/10/25 08:07:26;;;;;;;5.07;1.42;;;;;;;17.00;100.00;96507.44;5017584;28;20037;-77
2022/10/25 08:09:52;;;;;;;4.53;1.10;;;;;;;17.08;100.00;96497.50;5027577;28;20061;-77
2022/10/25 08:12:18;;;;;;;4.20;1.20;;;;;;;17.42;100.00;96493.22;5022489;28;20071;-76
2022/10/25 08:14:44;;;;;;;7.43;1.50;;;;;;;18.00;100.00;96500.88;5027640;28;20086;-77
2022/10/25 08:17:09;;;;;;;5.57;1.42;;;;;;;18.15;100.00;96504.22;5030148;28;20033;-78
2022/10/25 08:19:35;;;;;;;5.30;1.27;;;;;;;18.52;100.00;96491.41;5027169;28;20048;-76
2022/10/25 08:22:01;;;;;;;5.05;1.75;;;;;;;19.03;100.00;96486.31;5026492;28;20029;-76
2022/10/25 08:24:26;;;;;;;5.18;1.58;;;;;;;18.81;100.00;96487.53;5017496;28;20491;-76
2022/10/25 08:26:52;;;;;;;5.13;1.30;;;;;;;18.69;100.00;96486.50;5026415;28;20037;-78
2022/10/25 08:29:18;;;;;;;5.53;1.60;;;;;;;19.47;100.00;96484.00;5027557;28;20067;-76
2022/10/25 08:31:43;;;;;;;5.80;1.38;;;;;;;19.39;100.00;96485.03;5026016;28;20037;-76
2022/10/25 08:34:09;;;;;;;4.60;1.13;;;;;;;19.41;100.00;96488.31;5026568;28;20013;-76
2022/10/25 08:36:35;;;;;;;8.02;1.88;;;;;;;19.20;100.00;96492.03;5026500;28;20075;-76
2022/10/25 08:39:00;;;;;;;2.00;0.90;;;;;;;19.11;100.00;96492.47;5027063;28;20072;-76
2022/10/25 08:41:47;;;;;;;4.18;1.15;;;;;;;19.52;100.00;96490.34;5034420;28;20530;-77
2022/10/25 08:44:22;;;;;;;5.30;1.30;;;;;;;19.02;100.00;96494.53;5027162;28;20079;-76
2022/10/25 08:47:09;;;;;;;7.65;1.70;;;;;;;19.67;100.00;96497.31;5027963;28;20041;-77
2022/10/25 08:50:11;;;;;;;5.28;1.55;;;;;;;19.67;100.00;96505.31;5025385;28;20052;-77
2022/10/25 08:52:38;;;;;;;5.18;1.25;;;;;;;19.68;100.00;96496.28;5034227;28;20037;-76
2022/10/25 08:55:10;;;;;;;5.68;1.33;;;;;;;20.40;100.00;96497.81;5025569;28;20030;-77
2022/10/25 08:57:45;;;;;;;3.08;1.00;;;;;;;19.86;100.00;96503.63;5026300;28;20052;-77
2022/10/25 09:00:16;;;;;;;4.78;1.02;;;;;;;20.35;100.00;96505.63;5025071;28;20034;-77
2022/10/25 09:02:56;;;;;;;4.35;1.15;;;;;;;19.43;100.00;96499.59;5027552;28;20432;-76
2022/10/25 09:05:52;;;;;;;6.68;1.20;;;;;;;20.27;100.00;96508.56;5026711;28;20116;-76
2022/10/25 09:08:35;;;;;;;5.10;0.90;;;;;;;19.96;100.00;96512.00;5016843;28;20387;-75
2022/10/25 09:11:30;;;;;;;6.72;1.10;;;;;;;20.16;100.00;96512.72;5026265;28;20037;-76
2022/10/25 09:13:56;;;;;;;4.05;1.23;;;;;;;19.95;100.00;96505.84;5027211;28;20042;-76
2022/10/25 09:16:36;;;;;;;3.60;1.10;;;;;;;19.91;100.00;96509.13;5011731;28;20040;-76
2022/10/25 09:19:08;;;;;;;5.57;1.45;;;;;;;19.21;100.00;96516.84;5017204;28;20405;-76
2022/10/25 09:21:48;;;;;;;2.57;0.80;;;;;;;19.48;100.00;96513.13;5030831;28;20033;-77
2022/10/25 09:24:23;;;;;;;5.18;1.10;;;;;;;19.76;100.00;96507.53;5026348;28;20488;-77
2022/10/25 09:27:08;;;;;;;5.53;1.10;;;;;;;19.85;100.00;96518.81;5034416;28;20037;-76
2022/10/25 09:29:43;;;;;;;8.80;1.10;;;;;;;19.84;100.00;96514.50;5027304;28;20038;-78
2022/10/25 09:32:44;;;;;;;4.75;1.08;;;;;;;19.69;100.00;96511.28;5019687;28;20981;-75
2022/10/25 09:35:21;;;;;;;4.53;1.05;;;;;;;20.10;100.00;96518.09;5024743;28;20103;-76
2022/10/25 09:37:51;;;;;;;2.97;0.77;;;;;;;20.62;100.00;96517.03;5040786;28;20034;-76
2022/10/25 09:40:28;;;;;;;4.80;1.23;;;;;;;20.44;100.00;96519.56;5022827;28;20033;-76
2022/10/25 09:43:13;;;;;;;4.80;0.90;;;;;;;20.13;100.00;96521.16;5026360;28;20040;-77
2022/10/25 09:45:55;;;;;;;4.43;1.25;;;;;;;20.53;100.00;96517.50;5025680;28;20408;-77
2022/10/25 09:48:21;;;;;;;4.60;1.25;;;;;;;20.32;100.00;96530.13;5025029;28;20040;-77
2022/10/25 09:50:52;;;;;;;4.38;0.95;;;;;;;20.60;100.00;96518.28;5019628;28;20411;-76
2022/10/25 09:53:18;;;;;;;5.78;2.80;;;;;;;20.61;100.00;96519.91;5032620;28;20295;-77
2022/10/25 09:55:54;;;;;;;4.85;1.60;;;;;;;21.20;100.00;96521.31;5027315;28;20033;-77
2022/10/25 09:58:29;;;;;;;4.30;1.23;;;;;;;20.52;100.00;96529.19;5024471;28;20041;-76
2022/10/25 10:00:58;;;;;;;3.53;1.30;;;;;;;19.95;100.00;96527.19;5037207;28;20082;-77
2022/10/25 10:03:30;;;;;;;4.85;1.50;;;;;;;20.28;100.00;96530.75;5029293;28;20034;-77
2022/10/25 10:06:00;;;;;;;4.13;1.05;;;;;;;19.86;100.00;96531.13;5029513;28;20034;-76
2022/10/25 10:08:30;;;;;;;4.50;1.05;;;;;;;19.21;100.00;96524.84;5036335;28;20574;-76
2022/10/25 10:10:56;;;;;;;4.47;1.10;;;;;;;20.44;100.00;96523.06;5038195;28;20060;-76
2022/10/25 10:13:46;;;;;;;3.28;1.35;;;;;;;20.53;100.00;96522.84;5030820;28;20063;-78
2022/10/25 10:16:19;;;;;;;4.72;1.55;;;;;;;20.31;100.00;96517.78;5020933;28;20033;-76
2022/10/25 10:18:45;;;;;;;3.92;0.90;;;;;;;19.74;100.00;96512.25;5027660;28;20038;-77
2022/10/25 10:21:11;;;;;;;3.58;0.88;;;;;;;20.09;100.00;96522.63;5028738;28;20038;-76
2022/10/25 10:23:42;;;;;;;5.32;1.08;;;;;;;19.21;100.00;96524.84;5028440;28;20036;-77
2022/10/25 10:26:20;;;;;;;5.72;1.08;;;;;;;19.43;100.00;96517.44;5028449;28;20065;-76
2022/10/25 10:28:48;;;;;;;4.88;1.10;;;;;;;19.94;100.00;96528.22;5028011;28;20037;-77
2022/10/25 10:31:16;;;;;;;5.43;1.27;;;;;;;19.54;100.00;96516.81;5028625;28;20087;-77
2022/10/25 10:33:51;;;;;;;5.32;1.00;;;;;;;20.10;100.00;96520.78;5029988;28;20025;-78
2022/10/25 10:36:29;;;;;;;5.63;1.48;;;;;;;20.03;100.00;96512.78;5030112;28;20086;-77
2022/10/25 10:39:18;;;;;;;6.20;1.20;;;;;;;20.03;100.00;96518.13;5029166;28;20394;-77
2022/10/25 10:42:14;;;;;;;3.40;0.90;;;;;;;20.57;100.00;96508.00;5028911;28;20045;-78
2022/10/25 10:44:40;;;;;;;4.53;0.80;;;;;;;20.80;100.00;96513.63;5020801;28;20099;-77
2022/10/25 10:47:19;;;;;;;3.63;1.00;;;;;;;20.69;100.00;96506.28;5028133;28;20033;-78
2022/10/25 10:49:46;;;;;;;6.53;1.20;;;;;;;20.28;100.00;96501.38;5029246;28;20041;-77
2022/10/25 10:52:30;;;;;;;3.38;1.27;;;;;;;19.86;100.00;96512.44;5037560;28;20546;-77
2022/10/25 10:54:58;;;;;;;3.63;1.10;;;;;;;20.13;100.00;96512.34;5029253;28;20083;-77
2022/10/25 10:57:30;;;;;;;5.53;1.50;;;;;;;19.80;100.00;96507.94;5028524;28;20041;-77
2022/10/25 10:59:57;;;;;;;3.75;1.20;;;;;;;20.35;100.00;96510.97;5028055;28;20409;-77
2022/10/25 11:02:39;;;;;;;4.13;1.40;;;;;;;20.93;100.00;96516.19;5029102;28;20037;-78
2022/10/25 11:05:19;;;;;;;4.28;1.25;;;;;;;21.33;100.00;96502.47;5021035;28;20041;-77
2022/10/25 11:07:58;;;;;;;4.43;1.15;;;;;;;20.70;100.00;96515.94;5028216;28;20036;-77
2022/10/25 11:10:37;;;;;;;5.15;1.00;;;;;;;20.97;100.00;96511.22;5027557;28;20108;-77
2022/10/25 11:13:11;;;;;;;3.95;1.30;;;;;;;21.55;100.00;96504.75;5027762;28;20109;-78
2022/10/25 11:16:01;;;;;;;3.30;0.95;;;;;;;21.14;100.00;96500.78;5027913;28;20057;-77
2022/10/25 11:18:42;;;;;;;3.40;0.80;;;;;;;21.62;100.00;96492.13;5018914;28;20042;-77
2022/10/25 11:21:23;;;;;;;4.30;1.15;;;;;;;22.40;100.00;96496.78;5021002;28;20034;-77
2022/10/25 11:24:07;;;;;;;2.83;1.00;;;;;;;21.82;100.00;96499.94;5027313;28;20060;-77
2022/10/25 11:26:38;;;;;;;2.17;0.90;;;;;;;21.78;100.00;96491.53;5028242;28;20136;-77
2022/10/25 11:29:21;;;;;;;3.30;0.85;;;;;;;21.71;100.00;96493.47;5026889;28;20033;-78
2022/10/25 11:32:01;;;;;;;2.35;0.80;;;;;;;21.95;100.00;96499.78;5026708;28;20041;-78
2022/10/25 11:34:36;;;;;;;3.75;1.00;;;;;;;21.33;100.00;96490.97;5013494;28;20034;-77
2022/10/25 11:37:17;;;;;;;2.92;0.77;;;;;;;21.30;100.00;96497.56;5028132;28;20029;-77
2022/10/25 11:39:52;;;;;;;4.78;1.23;;;;;;;21.36;100.00;96496.72;5027194;28;20136;-77
2022/10/25 11:42:40;;;;;;;2.63;0.65;;;;;;;21.92;100.00;96486.84;5024032;28;20123;-77
2022/10/25 11:45:18;;;;;;;7.70;1.73;;;;;;;22.27;100.00;96483.56;5014326;28;20047;-78